Aérodrome :
LOGIN :

S'inscrire | Disclaimer

   EN    FR    IT 

 










Légende :    VFR   VFR Marginal   IFR   IFR Intensif   IFR Très Intensif
Visi : 
Plafond : 
>= 8 km
>= 3000ft
5 à 8 km
1000 à 3000 ft
1500m à 5 km
500 à 1000 ft
800 à 1500m
200 à 500 ft
< 800m
< 200 ft
Symboles :   Orages  Brouillard  Fortes neiges  Fortes précipitations  Vent > 20 kt
SIGMETs :   Divers  Orages  Givrage  Turbulence  Onde Orograph.  Cendres Volcan.






- Altitude de l'aérodrome : 348 ft
- Code IATA : STN


EGSS - London Stansted

DERNIER METAR :
  • 230750Z AUTO 33005KT 300V360 3100 DZ BKN003 OVC006 16/16 Q1015

METARs EXPIRÉS :
  • 230720Z AUTO VRB02KT 9999 -RA BKN003/// OVC009/// //////TCU 16/16 Q1015
  • 230650Z AUTO 28007KT 220V350 8000 -RA BKN003/// BKN011/// OVC022/// //////TCU 17/16 Q1015 RERA REDZ
  • 230620Z 26006KT 210V290 9999 DZ BKN004TCU BKN008 OVC015 17/17 Q1015 REDZ
  • 230550Z AUTO 25003KT 9000 BKN004/// OVC015/// //////TCU 17/17 Q1014
  • 230520Z AUTO 25004KT 220V290 6000 OVC003 17/16 Q1014 REDZ
  • 230450Z AUTO 25003KT 3400 DZ BKN003 OVC009 17/16 Q1014
  • 230420Z AUTO 24004KT 220V290 3800 -RADZ BKN005 OVC010 17/16 Q1014
  • 230350Z AUTO 23005KT 9999 -RA BKN008 BKN011 17/16 Q1014
  • 230320Z AUTO 23005KT 9999 FEW027 SCT032 OVC040 17/16 Q1014
  • 230250Z AUTO 22006KT 9999 FEW012 BKN030 BKN041 17/15 Q1014

TAF TAF EGSS
Valide du 23 à 06h jusqu'au 24 à 12h UTC


230455Z 2306/2412 25003KT 9999 SCT035
TEMPO 2306/2308 3000 RA BR BKN004
BECMG 2307/2310 31010KT
BECMG 2318/2321 08005KT
BECMG 2409/2412 18010KT
ATIS : +44 1279 669 325



MET'MAP, la Météo Aéronautique d'un coup d'oeil ! - Copyright ORBIFLY Décembre 2007 - Disclaimer

ORBIFLY MET'MAP TEAM :

Programmation & Développement : Alexandra Zaïnal
Sur une idée originale de : Baudouin d'Aumeries
Soutien technique & logistique : Manuel Goepfert
Assistance : Marc-Olivier Méhu




SOURCES & CREDITS :

   NOAA